sensor_id;sensor_type;location;lat;lon;timestamp;P1;durP1;ratioP1;P2;durP2;ratioP2
70169;SDS011;57543;45.442;9.212;2022-07-17T00:01:24;10.13;;;7.57;;
70169;SDS011;57543;45.442;9.212;2022-07-17T00:04:34;10.88;;;7.03;;
70169;SDS011;57543;45.442;9.212;2022-07-17T00:07:37;12.30;;;7.93;;
70169;SDS011;57543;45.442;9.212;2022-07-17T00:10:42;10.57;;;7.65;;
70169;SDS011;57543;45.442;9.212;2022-07-17T00:13:46;11.80;;;8.48;;
70169;SDS011;57543;45.442;9.212;2022-07-17T00:16:50;13.98;;;9.02;;
70169;SDS011;57543;45.442;9.212;2022-07-17T00:19:55;14.77;;;9.55;;
70169;SDS011;57543;45.442;9.212;2022-07-17T00:22:58;10.77;;;7.32;;
70169;SDS011;57543;45.442;9.212;2022-07-17T00:26:02;13.73;;;9.38;;
70169;SDS011;57543;45.442;9.212;2022-07-17T00:29:06;13.68;;;9.20;;
70169;SDS011;57543;45.442;9.212;2022-07-17T00:32:10;9.43;;;7.88;;
70169;SDS011;57543;45.442;9.212;2022-07-17T00:35:13;11.75;;;8.00;;
70169;SDS011;57543;45.442;9.212;2022-07-17T00:38:17;13.52;;;8.80;;
70169;SDS011;57543;45.442;9.212;2022-07-17T00:41:21;11.77;;;9.73;;
70169;SDS011;57543;45.442;9.212;2022-07-17T00:44:26;11.60;;;9.32;;
70169;SDS011;57543;45.442;9.212;2022-07-17T00:47:30;13.13;;;8.38;;
70169;SDS011;57543;45.442;9.212;2022-07-17T00:50:36;14.73;;;10.60;;
70169;SDS011;57543;45.442;9.212;2022-07-17T00:53:44;9.50;;;7.30;;
70169;SDS011;57543;45.442;9.212;2022-07-17T00:56:48;10.30;;;8.00;;
70169;SDS011;57543;45.442;9.212;2022-07-17T00:59:53;13.02;;;9.55;;
70169;SDS011;57543;45.442;9.212;2022-07-17T01:02:57;10.82;;;8.25;;
70169;SDS011;57543;45.442;9.212;2022-07-17T01:06:01;13.85;;;9.63;;
70169;SDS011;57543;45.442;9.212;2022-07-17T01:09:09;12.27;;;9.10;;
70169;SDS011;57543;45.442;9.212;2022-07-17T01:12:14;9.95;;;6.97;;
70169;SDS011;57543;45.442;9.212;2022-07-17T01:15:17;11.15;;;8.68;;
70169;SDS011;57543;45.442;9.212;2022-07-17T01:18:22;14.40;;;9.35;;
70169;SDS011;57543;45.442;9.212;2022-07-17T01:21:36;11.35;;;7.50;;
70169;SDS011;57543;45.442;9.212;2022-07-17T01:24:44;11.07;;;7.30;;
70169;SDS011;57543;45.442;9.212;2022-07-17T01:27:48;12.40;;;9.05;;
70169;SDS011;57543;45.442;9.212;2022-07-17T01:30:52;10.30;;;7.65;;
70169;SDS011;57543;45.442;9.212;2022-07-17T01:33:56;10.07;;;7.53;;
70169;SDS011;57543;45.442;9.212;2022-07-17T01:36:59;9.40;;;6.80;;
70169;SDS011;57543;45.442;9.212;2022-07-17T01:40:03;10.95;;;8.10;;
70169;SDS011;57543;45.442;9.212;2022-07-17T01:43:08;8.02;;;6.80;;
70169;SDS011;57543;45.442;9.212;2022-07-17T01:46:12;13.55;;;7.65;;
70169;SDS011;57543;45.442;9.212;2022-07-17T01:49:17;12.73;;;8.00;;
70169;SDS011;57543;45.442;9.212;2022-07-17T01:52:21;9.55;;;6.43;;
70169;SDS011;57543;45.442;9.212;2022-07-17T01:55:26;10.13;;;6.95;;
70169;SDS011;57543;45.442;9.212;2022-07-17T01:58:30;8.75;;;6.63;;
70169;SDS011;57543;45.442;9.212;2022-07-17T02:01:34;7.50;;;5.80;;
70169;SDS011;57543;45.442;9.212;2022-07-17T02:04:38;10.77;;;7.05;;
70169;SDS011;57543;45.442;9.212;2022-07-17T02:07:45;9.25;;;6.43;;
70169;SDS011;57543;45.442;9.212;2022-07-17T02:10:48;8.18;;;6.03;;
70169;SDS011;57543;45.442;9.212;2022-07-17T02:13:52;9.40;;;6.10;;
70169;SDS011;57543;45.442;9.212;2022-07-17T02:16:56;8.00;;;5.80;;
70169;SDS011;57543;45.442;9.212;2022-07-17T02:20:00;7.97;;;6.05;;
70169;SDS011;57543;45.442;9.212;2022-07-17T02:23:04;9.60;;;6.18;;
70169;SDS011;57543;45.442;9.212;2022-07-17T02:26:07;7.38;;;5.70;;
70169;SDS011;57543;45.442;9.212;2022-07-17T02:29:12;7.70;;;5.63;;
70169;SDS011;57543;45.442;9.212;2022-07-17T02:32:16;7.60;;;5.75;;
70169;SDS011;57543;45.442;9.212;2022-07-17T02:35:20;7.25;;;5.45;;
70169;SDS011;57543;45.442;9.212;2022-07-17T02:38:23;6.95;;;5.13;;
70169;SDS011;57543;45.442;9.212;2022-07-17T02:41:27;7.55;;;5.13;;
70169;SDS011;57543;45.442;9.212;2022-07-17T02:44:30;7.45;;;4.60;;
70169;SDS011;57543;45.442;9.212;2022-07-17T02:47:34;7.05;;;5.28;;
70169;SDS011;57543;45.442;9.212;2022-07-17T02:50:38;9.40;;;5.30;;
70169;SDS011;57543;45.442;9.212;2022-07-17T02:53:42;6.78;;;4.93;;
70169;SDS011;57543;45.442;9.212;2022-07-17T02:56:46;8.45;;;4.93;;
70169;SDS011;57543;45.442;9.212;2022-07-17T02:59:49;5.82;;;4.63;;
70169;SDS011;57543;45.442;9.212;2022-07-17T03:02:53;6.90;;;4.85;;
70169;SDS011;57543;45.442;9.212;2022-07-17T03:05:58;7.45;;;4.40;;
70169;SDS011;57543;45.442;9.212;2022-07-17T03:09:02;6.50;;;4.45;;
70169;SDS011;57543;45.442;9.212;2022-07-17T03:12:06;8.50;;;5.20;;
70169;SDS011;57543;45.442;9.212;2022-07-17T03:15:09;8.13;;;4.72;;
70169;SDS011;57543;45.442;9.212;2022-07-17T03:18:14;8.73;;;5.20;;
70169;SDS011;57543;45.442;9.212;2022-07-17T03:21:18;6.45;;;4.80;;
70169;SDS011;57543;45.442;9.212;2022-07-17T03:24:22;5.57;;;4.50;;
70169;SDS011;57543;45.442;9.212;2022-07-17T03:27:26;6.60;;;4.82;;
70169;SDS011;57543;45.442;9.212;2022-07-17T03:30:30;7.20;;;4.90;;
70169;SDS011;57543;45.442;9.212;2022-07-17T03:33:34;12.02;;;5.00;;
70169;SDS011;57543;45.442;9.212;2022-07-17T03:36:37;7.28;;;4.50;;
70169;SDS011;57543;45.442;9.212;2022-07-17T03:39:41;7.10;;;4.72;;
70169;SDS011;57543;45.442;9.212;2022-07-17T03:42:45;6.63;;;5.25;;
70169;SDS011;57543;45.442;9.212;2022-07-17T03:45:52;6.35;;;4.38;;
70169;SDS011;57543;45.442;9.212;2022-07-17T03:48:56;7.65;;;4.63;;
70169;SDS011;57543;45.442;9.212;2022-07-17T03:51:59;7.70;;;4.90;;
70169;SDS011;57543;45.442;9.212;2022-07-17T03:55:03;6.93;;;4.55;;
70169;SDS011;57543;45.442;9.212;2022-07-17T03:58:07;7.60;;;5.00;;
70169;SDS011;57543;45.442;9.212;2022-07-17T04:01:10;7.90;;;4.35;;
70169;SDS011;57543;45.442;9.212;2022-07-17T04:04:14;9.02;;;4.90;;
70169;SDS011;57543;45.442;9.212;2022-07-17T04:07:17;7.28;;;4.88;;
70169;SDS011;57543;45.442;9.212;2022-07-17T04:10:30;8.97;;;4.90;;
70169;SDS011;57543;45.442;9.212;2022-07-17T04:13:34;8.63;;;4.85;;
70169;SDS011;57543;45.442;9.212;2022-07-17T04:16:38;8.45;;;4.95;;
70169;SDS011;57543;45.442;9.212;2022-07-17T04:19:42;9.10;;;5.82;;
70169;SDS011;57543;45.442;9.212;2022-07-17T04:22:45;7.53;;;5.03;;
70169;SDS011;57543;45.442;9.212;2022-07-17T04:25:49;9.45;;;5.07;;
70169;SDS011;57543;45.442;9.212;2022-07-17T04:28:53;8.05;;;4.65;;
70169;SDS011;57543;45.442;9.212;2022-07-17T04:31:57;6.50;;;4.93;;
70169;SDS011;57543;45.442;9.212;2022-07-17T04:35:01;7.88;;;5.35;;
70169;SDS011;57543;45.442;9.212;2022-07-17T04:38:06;9.30;;;5.85;;
70169;SDS011;57543;45.442;9.212;2022-07-17T04:41:11;9.80;;;5.72;;
70169;SDS011;57543;45.442;9.212;2022-07-17T04:44:15;9.88;;;6.10;;
70169;SDS011;57543;45.442;9.212;2022-07-17T04:47:18;8.82;;;6.15;;
70169;SDS011;57543;45.442;9.212;2022-07-17T04:50:22;6.25;;;5.03;;
70169;SDS011;57543;45.442;9.212;2022-07-17T04:53:25;11.32;;;6.93;;
70169;SDS011;57543;45.442;9.212;2022-07-17T04:56:29;11.30;;;6.70;;
70169;SDS011;57543;45.442;9.212;2022-07-17T04:59:33;9.73;;;6.75;;
70169;SDS011;57543;45.442;9.212;2022-07-17T05:02:37;7.30;;;5.28;;
70169;SDS011;57543;45.442;9.212;2022-07-17T05:05:41;12.07;;;7.43;;
70169;SDS011;57543;45.442;9.212;2022-07-17T05:08:45;11.70;;;7.93;;
70169;SDS011;57543;45.442;9.212;2022-07-17T05:11:48;9.57;;;7.25;;
70169;SDS011;57543;45.442;9.212;2022-07-17T05:14:52;11.73;;;8.50;;
70169;SDS011;57543;45.442;9.212;2022-07-17T05:17:56;11.05;;;7.60;;
70169;SDS011;57543;45.442;9.212;2022-07-17T05:21:00;12.57;;;8.82;;
70169;SDS011;57543;45.442;9.212;2022-07-17T05:24:04;12.82;;;8.57;;
70169;SDS011;57543;45.442;9.212;2022-07-17T05:27:08;14.63;;;9.55;;
70169;SDS011;57543;45.442;9.212;2022-07-17T05:30:12;13.73;;;8.55;;
70169;SDS011;57543;45.442;9.212;2022-07-17T05:33:16;12.80;;;9.27;;
70169;SDS011;57543;45.442;9.212;2022-07-17T05:36:19;12.85;;;9.45;;
70169;SDS011;57543;45.442;9.212;2022-07-17T05:39:23;14.73;;;8.27;;
70169;SDS011;57543;45.442;9.212;2022-07-17T05:42:27;13.98;;;9.48;;
70169;SDS011;57543;45.442;9.212;2022-07-17T05:45:30;9.95;;;7.65;;
70169;SDS011;57543;45.442;9.212;2022-07-17T05:48:34;12.15;;;9.20;;
70169;SDS011;57543;45.442;9.212;2022-07-17T05:51:37;12.70;;;8.32;;
70169;SDS011;57543;45.442;9.212;2022-07-17T05:54:41;12.77;;;9.23;;
70169;SDS011;57543;45.442;9.212;2022-07-17T05:57:45;13.27;;;8.90;;
70169;SDS011;57543;45.442;9.212;2022-07-17T06:00:49;13.88;;;8.15;;
70169;SDS011;57543;45.442;9.212;2022-07-17T06:03:52;11.65;;;8.23;;
70169;SDS011;57543;45.442;9.212;2022-07-17T06:06:56;14.48;;;7.57;;
70169;SDS011;57543;45.442;9.212;2022-07-17T06:10:00;10.02;;;8.07;;
70169;SDS011;57543;45.442;9.212;2022-07-17T06:13:04;10.80;;;8.30;;
70169;SDS011;57543;45.442;9.212;2022-07-17T06:16:08;12.60;;;7.88;;
70169;SDS011;57543;45.442;9.212;2022-07-17T06:19:12;11.85;;;7.90;;
70169;SDS011;57543;45.442;9.212;2022-07-17T06:22:16;14.68;;;8.30;;
70169;SDS011;57543;45.442;9.212;2022-07-17T06:25:20;13.35;;;8.68;;
70169;SDS011;57543;45.442;9.212;2022-07-17T06:28:23;12.80;;;7.80;;
70169;SDS011;57543;45.442;9.212;2022-07-17T06:31:27;10.00;;;7.60;;
70169;SDS011;57543;45.442;9.212;2022-07-17T06:34:31;11.85;;;7.53;;
70169;SDS011;57543;45.442;9.212;2022-07-17T06:37:35;13.05;;;7.88;;
70169;SDS011;57543;45.442;9.212;2022-07-17T06:40:40;9.98;;;7.00;;
70169;SDS011;57543;45.442;9.212;2022-07-17T06:43:43;10.00;;;7.60;;
70169;SDS011;57543;45.442;9.212;2022-07-17T06:46:46;11.10;;;7.55;;
70169;SDS011;57543;45.442;9.212;2022-07-17T06:49:50;11.43;;;7.68;;
70169;SDS011;57543;45.442;9.212;2022-07-17T06:52:54;9.10;;;6.72;;
70169;SDS011;57543;45.442;9.212;2022-07-17T06:55:57;10.70;;;6.80;;
70169;SDS011;57543;45.442;9.212;2022-07-17T06:59:01;9.38;;;6.25;;
70169;SDS011;57543;45.442;9.212;2022-07-17T07:02:06;11.38;;;6.15;;
70169;SDS011;57543;45.442;9.212;2022-07-17T07:05:10;9.57;;;6.43;;
70169;SDS011;57543;45.442;9.212;2022-07-17T07:08:13;13.68;;;6.30;;
70169;SDS011;57543;45.442;9.212;2022-07-17T07:11:17;10.63;;;6.30;;
70169;SDS011;57543;45.442;9.212;2022-07-17T07:14:21;7.97;;;5.78;;
70169;SDS011;57543;45.442;9.212;2022-07-17T07:17:25;8.40;;;5.35;;
70169;SDS011;57543;45.442;9.212;2022-07-17T07:20:29;9.27;;;5.47;;
70169;SDS011;57543;45.442;9.212;2022-07-17T07:23:33;9.43;;;5.63;;
70169;SDS011;57543;45.442;9.212;2022-07-17T07:26:37;9.73;;;6.05;;
70169;SDS011;57543;45.442;9.212;2022-07-17T07:29:41;8.35;;;5.72;;
70169;SDS011;57543;45.442;9.212;2022-07-17T07:32:44;9.23;;;5.65;;
70169;SDS011;57543;45.442;9.212;2022-07-17T07:35:48;9.75;;;5.40;;
70169;SDS011;57543;45.442;9.212;2022-07-17T07:38:52;9.75;;;5.80;;
70169;SDS011;57543;45.442;9.212;2022-07-17T07:41:56;9.93;;;5.75;;
70169;SDS011;57543;45.442;9.212;2022-07-17T07:45:00;9.60;;;5.45;;
70169;SDS011;57543;45.442;9.212;2022-07-17T07:48:04;8.13;;;5.93;;
70169;SDS011;57543;45.442;9.212;2022-07-17T07:51:08;7.88;;;5.68;;
70169;SDS011;57543;45.442;9.212;2022-07-17T07:54:12;8.27;;;5.00;;
70169;SDS011;57543;45.442;9.212;2022-07-17T07:57:16;8.13;;;5.13;;
70169;SDS011;57543;45.442;9.212;2022-07-17T08:00:20;7.93;;;5.07;;
70169;SDS011;57543;45.442;9.212;2022-07-17T08:03:24;11.75;;;5.25;;
70169;SDS011;57543;45.442;9.212;2022-07-17T08:06:28;6.90;;;5.50;;
70169;SDS011;57543;45.442;9.212;2022-07-17T08:09:32;8.35;;;4.97;;
70169;SDS011;57543;45.442;9.212;2022-07-17T08:12:35;6.15;;;4.63;;
70169;SDS011;57543;45.442;9.212;2022-07-17T08:15:39;8.48;;;4.63;;
70169;SDS011;57543;45.442;9.212;2022-07-17T08:18:42;6.90;;;4.63;;
70169;SDS011;57543;45.442;9.212;2022-07-17T08:21:46;6.78;;;4.32;;
70169;SDS011;57543;45.442;9.212;2022-07-17T08:24:50;12.45;;;4.55;;
70169;SDS011;57543;45.442;9.212;2022-07-17T08:27:54;6.68;;;4.40;;
70169;SDS011;57543;45.442;9.212;2022-07-17T08:30:58;6.20;;;4.30;;
70169;SDS011;57543;45.442;9.212;2022-07-17T08:34:01;8.43;;;4.60;;
70169;SDS011;57543;45.442;9.212;2022-07-17T08:37:05;8.50;;;4.90;;
70169;SDS011;57543;45.442;9.212;2022-07-17T08:40:14;8.50;;;4.75;;
70169;SDS011;57543;45.442;9.212;2022-07-17T08:43:25;8.95;;;4.95;;
70169;SDS011;57543;45.442;9.212;2022-07-17T08:46:30;8.65;;;4.60;;
70169;SDS011;57543;45.442;9.212;2022-07-17T08:49:35;9.05;;;5.25;;
70169;SDS011;57543;45.442;9.212;2022-07-17T08:52:44;8.02;;;4.90;;
70169;SDS011;57543;45.442;9.212;2022-07-17T08:55:48;8.10;;;5.00;;
70169;SDS011;57543;45.442;9.212;2022-07-17T08:58:52;7.97;;;5.00;;
70169;SDS011;57543;45.442;9.212;2022-07-17T09:01:56;8.88;;;5.32;;
70169;SDS011;57543;45.442;9.212;2022-07-17T09:05:00;7.30;;;4.90;;
70169;SDS011;57543;45.442;9.212;2022-07-17T09:08:05;8.75;;;5.25;;
70169;SDS011;57543;45.442;9.212;2022-07-17T09:11:10;7.68;;;5.10;;
70169;SDS011;57543;45.442;9.212;2022-07-17T09:14:13;7.55;;;4.97;;
70169;SDS011;57543;45.442;9.212;2022-07-17T09:17:18;10.10;;;5.10;;
70169;SDS011;57543;45.442;9.212;2022-07-17T09:20:22;7.72;;;4.90;;
70169;SDS011;57543;45.442;9.212;2022-07-17T09:23:26;7.13;;;4.88;;
70169;SDS011;57543;45.442;9.212;2022-07-17T09:26:30;7.43;;;4.68;;
70169;SDS011;57543;45.442;9.212;2022-07-17T09:33:28;9.20;;;5.70;;
70169;SDS011;57543;45.442;9.212;2022-07-17T09:36:31;9.48;;;5.20;;
70169;SDS011;57543;45.442;9.212;2022-07-17T09:39:36;7.70;;;4.80;;
70169;SDS011;57543;45.442;9.212;2022-07-17T09:42:40;6.53;;;4.90;;
70169;SDS011;57543;45.442;9.212;2022-07-17T09:45:44;7.32;;;5.07;;
70169;SDS011;57543;45.442;9.212;2022-07-17T09:48:50;10.05;;;5.32;;
70169;SDS011;57543;45.442;9.212;2022-07-17T09:51:55;8.32;;;4.88;;
70169;SDS011;57543;45.442;9.212;2022-07-17T09:55:01;7.10;;;4.80;;
70169;SDS011;57543;45.442;9.212;2022-07-17T09:58:05;8.15;;;5.30;;
70169;SDS011;57543;45.442;9.212;2022-07-17T10:01:10;7.22;;;5.10;;
70169;SDS011;57543;45.442;9.212;2022-07-17T10:04:14;6.40;;;4.50;;
70169;SDS011;57543;45.442;9.212;2022-07-17T10:07:20;8.55;;;4.90;;
70169;SDS011;57543;45.442;9.212;2022-07-17T10:10:23;6.68;;;4.85;;
70169;SDS011;57543;45.442;9.212;2022-07-17T10:13:27;8.15;;;4.90;;
70169;SDS011;57543;45.442;9.212;2022-07-17T10:16:32;8.00;;;5.25;;
70169;SDS011;57543;45.442;9.212;2022-07-17T10:19:47;9.15;;;5.28;;
70169;SDS011;57543;45.442;9.212;2022-07-17T10:22:52;7.82;;;5.05;;
70169;SDS011;57543;45.442;9.212;2022-07-17T10:25:59;7.05;;;5.10;;
70169;SDS011;57543;45.442;9.212;2022-07-17T10:29:03;10.13;;;5.40;;
70169;SDS011;57543;45.442;9.212;2022-07-17T10:32:15;10.65;;;5.10;;
70169;SDS011;57543;45.442;9.212;2022-07-17T10:35:21;8.68;;;5.35;;
70169;SDS011;57543;45.442;9.212;2022-07-17T10:38:26;7.90;;;5.55;;
70169;SDS011;57543;45.442;9.212;2022-07-17T10:41:30;7.53;;;5.47;;
70169;SDS011;57543;45.442;9.212;2022-07-17T10:44:34;8.57;;;5.70;;
70169;SDS011;57543;45.442;9.212;2022-07-17T10:51:01;8.27;;;5.25;;
70169;SDS011;57543;45.442;9.212;2022-07-17T10:54:05;7.90;;;4.97;;
70169;SDS011;57543;45.442;9.212;2022-07-17T10:57:09;7.57;;;5.18;;
70169;SDS011;57543;45.442;9.212;2022-07-17T11:00:14;6.75;;;5.10;;
70169;SDS011;57543;45.442;9.212;2022-07-17T11:03:19;9.80;;;5.70;;
70169;SDS011;57543;45.442;9.212;2022-07-17T11:06:24;7.75;;;5.38;;
70169;SDS011;57543;45.442;9.212;2022-07-17T11:09:30;7.13;;;5.05;;
70169;SDS011;57543;45.442;9.212;2022-07-17T11:12:35;7.30;;;5.53;;
70169;SDS011;57543;45.442;9.212;2022-07-17T11:15:46;7.50;;;5.18;;
70169;SDS011;57543;45.442;9.212;2022-07-17T11:18:51;9.50;;;5.40;;
70169;SDS011;57543;45.442;9.212;2022-07-17T11:21:55;8.73;;;5.40;;
70169;SDS011;57543;45.442;9.212;2022-07-17T11:25:04;7.38;;;5.47;;
70169;SDS011;57543;45.442;9.212;2022-07-17T11:28:08;8.77;;;5.60;;
70169;SDS011;57543;45.442;9.212;2022-07-17T11:34:19;6.85;;;5.03;;
70169;SDS011;57543;45.442;9.212;2022-07-17T11:37:27;8.70;;;5.65;;
70169;SDS011;57543;45.442;9.212;2022-07-17T11:40:33;7.57;;;5.13;;
70169;SDS011;57543;45.442;9.212;2022-07-17T11:43:40;8.70;;;5.20;;
70169;SDS011;57543;45.442;9.212;2022-07-17T11:46:45;9.77;;;4.90;;
70169;SDS011;57543;45.442;9.212;2022-07-17T11:49:50;6.95;;;5.07;;
70169;SDS011;57543;45.442;9.212;2022-07-17T11:52:54;7.50;;;5.03;;
70169;SDS011;57543;45.442;9.212;2022-07-17T11:56:04;8.65;;;5.57;;
70169;SDS011;57543;45.442;9.212;2022-07-17T11:59:10;6.85;;;5.07;;
70169;SDS011;57543;45.442;9.212;2022-07-17T12:02:14;9.05;;;4.78;;
70169;SDS011;57543;45.442;9.212;2022-07-17T12:05:25;8.63;;;5.55;;
70169;SDS011;57543;45.442;9.212;2022-07-17T12:08:30;7.35;;;5.47;;
70169;SDS011;57543;45.442;9.212;2022-07-17T12:11:44;11.55;;;5.28;;
70169;SDS011;57543;45.442;9.212;2022-07-17T12:14:52;10.30;;;5.25;;
70169;SDS011;57543;45.442;9.212;2022-07-17T12:17:57;9.07;;;5.00;;
70169;SDS011;57543;45.442;9.212;2022-07-17T12:21:02;6.43;;;4.57;;
70169;SDS011;57543;45.442;9.212;2022-07-17T12:24:08;7.82;;;4.82;;
70169;SDS011;57543;45.442;9.212;2022-07-17T12:27:16;7.88;;;4.93;;
70169;SDS011;57543;45.442;9.212;2022-07-17T12:30:20;9.77;;;5.32;;
70169;SDS011;57543;45.442;9.212;2022-07-17T12:33:24;9.63;;;4.97;;
70169;SDS011;57543;45.442;9.212;2022-07-17T12:36:28;7.60;;;4.82;;
70169;SDS011;57543;45.442;9.212;2022-07-17T12:39:31;7.30;;;4.88;;
70169;SDS011;57543;45.442;9.212;2022-07-17T12:42:35;7.90;;;4.90;;
70169;SDS011;57543;45.442;9.212;2022-07-17T12:45:39;8.75;;;4.80;;
70169;SDS011;57543;45.442;9.212;2022-07-17T12:48:43;7.75;;;4.40;;
70169;SDS011;57543;45.442;9.212;2022-07-17T12:51:48;6.28;;;4.40;;
70169;SDS011;57543;45.442;9.212;2022-07-17T12:54:52;6.13;;;4.63;;
70169;SDS011;57543;45.442;9.212;2022-07-17T12:57:56;8.32;;;4.47;;
70169;SDS011;57543;45.442;9.212;2022-07-17T13:01:00;7.97;;;4.97;;
70169;SDS011;57543;45.442;9.212;2022-07-17T13:04:04;6.85;;;4.35;;
70169;SDS011;57543;45.442;9.212;2022-07-17T13:07:08;7.15;;;4.60;;
70169;SDS011;57543;45.442;9.212;2022-07-17T13:10:11;6.15;;;4.93;;
70169;SDS011;57543;45.442;9.212;2022-07-17T13:13:15;8.50;;;4.82;;
70169;SDS011;57543;45.442;9.212;2022-07-17T13:16:19;6.60;;;4.50;;
70169;SDS011;57543;45.442;9.212;2022-07-17T13:19:23;5.38;;;4.15;;
70169;SDS011;57543;45.442;9.212;2022-07-17T13:22:27;12.38;;;6.00;;
70169;SDS011;57543;45.442;9.212;2022-07-17T13:25:30;7.97;;;4.70;;
70169;SDS011;57543;45.442;9.212;2022-07-17T13:28:34;5.75;;;4.20;;
70169;SDS011;57543;45.442;9.212;2022-07-17T13:31:38;6.35;;;4.85;;
70169;SDS011;57543;45.442;9.212;2022-07-17T13:34:42;7.72;;;4.90;;
70169;SDS011;57543;45.442;9.212;2022-07-17T13:37:45;7.35;;;4.35;;
70169;SDS011;57543;45.442;9.212;2022-07-17T13:40:52;5.85;;;4.38;;
70169;SDS011;57543;45.442;9.212;2022-07-17T13:43:56;8.63;;;5.07;;
70169;SDS011;57543;45.442;9.212;2022-07-17T13:47:02;6.97;;;4.75;;
70169;SDS011;57543;45.442;9.212;2022-07-17T13:50:06;7.78;;;4.80;;
70169;SDS011;57543;45.442;9.212;2022-07-17T13:53:10;6.38;;;4.40;;
70169;SDS011;57543;45.442;9.212;2022-07-17T13:56:15;6.07;;;4.20;;
70169;SDS011;57543;45.442;9.212;2022-07-17T13:59:18;6.80;;;4.15;;
70169;SDS011;57543;45.442;9.212;2022-07-17T14:02:22;8.35;;;4.40;;
70169;SDS011;57543;45.442;9.212;2022-07-17T14:05:26;7.32;;;5.30;;
70169;SDS011;57543;45.442;9.212;2022-07-17T14:08:29;8.20;;;5.30;;
70169;SDS011;57543;45.442;9.212;2022-07-17T14:11:35;7.18;;;4.70;;
70169;SDS011;57543;45.442;9.212;2022-07-17T14:14:39;7.63;;;5.30;;
70169;SDS011;57543;45.442;9.212;2022-07-17T14:17:43;8.57;;;5.00;;
70169;SDS011;57543;45.442;9.212;2022-07-17T14:20:47;7.30;;;5.10;;
70169;SDS011;57543;45.442;9.212;2022-07-17T14:23:51;6.65;;;4.95;;
70169;SDS011;57543;45.442;9.212;2022-07-17T14:26:54;6.55;;;5.03;;
70169;SDS011;57543;45.442;9.212;2022-07-17T14:29:58;8.25;;;4.88;;
70169;SDS011;57543;45.442;9.212;2022-07-17T14:33:01;6.30;;;4.68;;
70169;SDS011;57543;45.442;9.212;2022-07-17T14:36:05;6.50;;;5.15;;
70169;SDS011;57543;45.442;9.212;2022-07-17T14:39:09;7.85;;;5.13;;
70169;SDS011;57543;45.442;9.212;2022-07-17T14:42:13;7.30;;;5.60;;
70169;SDS011;57543;45.442;9.212;2022-07-17T14:45:17;6.82;;;5.50;;
70169;SDS011;57543;45.442;9.212;2022-07-17T14:48:20;7.78;;;5.50;;
70169;SDS011;57543;45.442;9.212;2022-07-17T14:51:24;7.05;;;5.40;;
70169;SDS011;57543;45.442;9.212;2022-07-17T14:54:28;6.50;;;5.20;;
70169;SDS011;57543;45.442;9.212;2022-07-17T14:57:33;7.22;;;5.45;;
70169;SDS011;57543;45.442;9.212;2022-07-17T15:00:37;7.57;;;5.22;;
70169;SDS011;57543;45.442;9.212;2022-07-17T15:03:41;7.07;;;5.40;;
70169;SDS011;57543;45.442;9.212;2022-07-17T15:06:45;7.40;;;5.28;;
70169;SDS011;57543;45.442;9.212;2022-07-17T15:09:49;6.55;;;5.07;;
70169;SDS011;57543;45.442;9.212;2022-07-17T15:12:52;7.45;;;5.20;;
70169;SDS011;57543;45.442;9.212;2022-07-17T15:15:56;7.70;;;5.32;;
70169;SDS011;57543;45.442;9.212;2022-07-17T15:19:00;7.68;;;5.75;;
70169;SDS011;57543;45.442;9.212;2022-07-17T15:22:04;7.22;;;5.38;;
70169;SDS011;57543;45.442;9.212;2022-07-17T15:25:08;7.85;;;5.30;;
70169;SDS011;57543;45.442;9.212;2022-07-17T15:28:12;8.07;;;5.30;;
70169;SDS011;57543;45.442;9.212;2022-07-17T15:31:15;6.93;;;5.78;;
70169;SDS011;57543;45.442;9.212;2022-07-17T15:34:20;6.75;;;5.15;;
70169;SDS011;57543;45.442;9.212;2022-07-17T15:37:24;6.63;;;5.10;;
70169;SDS011;57543;45.442;9.212;2022-07-17T15:40:28;6.22;;;5.22;;
70169;SDS011;57543;45.442;9.212;2022-07-17T15:43:32;7.43;;;5.55;;
70169;SDS011;57543;45.442;9.212;2022-07-17T15:46:35;8.93;;;6.05;;
70169;SDS011;57543;45.442;9.212;2022-07-17T15:49:40;9.50;;;5.72;;
70169;SDS011;57543;45.442;9.212;2022-07-17T15:52:44;7.22;;;5.22;;
70169;SDS011;57543;45.442;9.212;2022-07-17T15:55:47;7.57;;;5.68;;
70169;SDS011;57543;45.442;9.212;2022-07-17T15:58:53;6.00;;;4.78;;
70169;SDS011;57543;45.442;9.212;2022-07-17T16:01:57;10.85;;;5.22;;
70169;SDS011;57543;45.442;9.212;2022-07-17T16:05:00;8.27;;;5.43;;
70169;SDS011;57543;45.442;9.212;2022-07-17T16:08:05;7.18;;;5.50;;
70169;SDS011;57543;45.442;9.212;2022-07-17T16:11:10;7.47;;;5.55;;
70169;SDS011;57543;45.442;9.212;2022-07-17T16:14:13;7.80;;;5.45;;
70169;SDS011;57543;45.442;9.212;2022-07-17T16:17:17;6.95;;;5.40;;
70169;SDS011;57543;45.442;9.212;2022-07-17T16:20:21;8.15;;;5.95;;
70169;SDS011;57543;45.442;9.212;2022-07-17T16:23:27;9.27;;;5.78;;
70169;SDS011;57543;45.442;9.212;2022-07-17T16:26:30;9.88;;;5.68;;
70169;SDS011;57543;45.442;9.212;2022-07-17T16:29:34;8.60;;;5.90;;
70169;SDS011;57543;45.442;9.212;2022-07-17T16:32:37;7.20;;;5.80;;
70169;SDS011;57543;45.442;9.212;2022-07-17T16:35:41;7.43;;;5.47;;
70169;SDS011;57543;45.442;9.212;2022-07-17T16:38:45;9.13;;;5.50;;
70169;SDS011;57543;45.442;9.212;2022-07-17T16:41:49;7.80;;;5.80;;
70169;SDS011;57543;45.442;9.212;2022-07-17T16:44:53;7.07;;;5.63;;
70169;SDS011;57543;45.442;9.212;2022-07-17T16:47:57;7.30;;;6.10;;
70169;SDS011;57543;45.442;9.212;2022-07-17T16:51:00;8.98;;;5.70;;
70169;SDS011;57543;45.442;9.212;2022-07-17T16:54:04;7.68;;;5.45;;
70169;SDS011;57543;45.442;9.212;2022-07-17T16:57:08;10.38;;;6.03;;
70169;SDS011;57543;45.442;9.212;2022-07-17T17:00:13;9.13;;;5.85;;
70169;SDS011;57543;45.442;9.212;2022-07-17T17:03:17;7.63;;;5.75;;
70169;SDS011;57543;45.442;9.212;2022-07-17T17:06:20;8.73;;;6.13;;
70169;SDS011;57543;45.442;9.212;2022-07-17T17:09:24;7.80;;;5.72;;
70169;SDS011;57543;45.442;9.212;2022-07-17T17:12:28;7.63;;;5.50;;
70169;SDS011;57543;45.442;9.212;2022-07-17T17:15:31;7.38;;;5.70;;
70169;SDS011;57543;45.442;9.212;2022-07-17T17:18:36;7.53;;;5.60;;
70169;SDS011;57543;45.442;9.212;2022-07-17T17:21:40;12.52;;;5.93;;
70169;SDS011;57543;45.442;9.212;2022-07-17T17:24:44;8.57;;;5.22;;
70169;SDS011;57543;45.442;9.212;2022-07-17T17:27:48;9.00;;;6.28;;
70169;SDS011;57543;45.442;9.212;2022-07-17T17:30:55;7.40;;;5.95;;
70169;SDS011;57543;45.442;9.212;2022-07-17T17:33:58;8.18;;;6.03;;
70169;SDS011;57543;45.442;9.212;2022-07-17T17:37:01;9.32;;;5.95;;
70169;SDS011;57543;45.442;9.212;2022-07-17T17:40:05;8.27;;;5.25;;
70169;SDS011;57543;45.442;9.212;2022-07-17T17:43:10;7.13;;;5.50;;
70169;SDS011;57543;45.442;9.212;2022-07-17T17:46:14;8.95;;;5.35;;
70169;SDS011;57543;45.442;9.212;2022-07-17T17:49:18;7.90;;;5.60;;
70169;SDS011;57543;45.442;9.212;2022-07-17T17:52:22;9.82;;;5.93;;
70169;SDS011;57543;45.442;9.212;2022-07-17T17:55:26;7.15;;;5.75;;
70169;SDS011;57543;45.442;9.212;2022-07-17T17:58:30;7.57;;;6.00;;
70169;SDS011;57543;45.442;9.212;2022-07-17T18:01:34;7.70;;;5.93;;
70169;SDS011;57543;45.442;9.212;2022-07-17T18:04:38;7.75;;;5.47;;
70169;SDS011;57543;45.442;9.212;2022-07-17T18:07:42;7.43;;;5.97;;
70169;SDS011;57543;45.442;9.212;2022-07-17T18:10:46;13.15;;;6.30;;
70169;SDS011;57543;45.442;9.212;2022-07-17T18:13:50;10.48;;;6.10;;
70169;SDS011;57543;45.442;9.212;2022-07-17T18:16:53;8.52;;;5.50;;
70169;SDS011;57543;45.442;9.212;2022-07-17T18:19:57;9.90;;;5.97;;
70169;SDS011;57543;45.442;9.212;2022-07-17T18:23:01;7.20;;;5.70;;
70169;SDS011;57543;45.442;9.212;2022-07-17T18:26:05;10.05;;;6.03;;
70169;SDS011;57543;45.442;9.212;2022-07-17T18:29:09;9.63;;;6.22;;
70169;SDS011;57543;45.442;9.212;2022-07-17T18:32:13;9.07;;;6.00;;
70169;SDS011;57543;45.442;9.212;2022-07-17T18:35:17;9.32;;;5.72;;
70169;SDS011;57543;45.442;9.212;2022-07-17T18:38:21;11.10;;;6.07;;